Aviation Digital Data Service (ADDS)

Output produced by METARs form (0711 UTC 24 May 2015)
found at http://aviationweather.gov/adds/metars/
 
KDTW 240536Z 2406/2512 17004KT P6SM BKN250 
     FM241400 19009KT P6SM SCT090 BKN150 
     FM242200 16006KT P6SM SCT060 OVC100 
     FM250800 19010KT P6SM BKN080 BKN150